Atterbury, Illinois
Current Conditions -  °F | °C
As of 2:52 AM on Wednesday 22 Oct 2014 (Local Time) from KSPI Reporting Station
Clear Clear  
Wind Chill:   Ceiling: Unl
Heat Index:   Visibility: 10mi
Dew Point:   Wind: 0mph
Humidity: 89%   Direction: NA
Pressure: 30.27"   Gusts: NA
Location:  40.0452°N, 89.8548°W
Report Text: KSPI 220752Z AUTO 00000KT 10SM CLR 03/02 A3027 RMK AO2 SLP250 T00330017
Loading
Personal Weather Stations






























Interactive Weather Map
Tropical Storm Tracking
New forecast layout! Learn more

10-Day Weather Forecast

Advertisements
Track Severe Weather on mobile